Kaszuby — C6XD6 — position and weather

sailwx.info

Track history (hours):
 
Tides and Currents Weather Stations Pressure Air Temp Water Temp Dewpoint Dewpoint Depression Visibility Wind Speed Wind Dir Waves Ship Positions

Kaszuby

Last reported at 2015-Jan-28 07:24 UTC. Time now 2015-Jan-30 07:55 UTC.
Position N 35°58' W 005°36'.

Length 190 m; draft 10.5 m.

Type: Cargo ship. MMSI: 311005600.

Date/timePositionNaut miles runAvg speedWind from/ knotsBaromVisibWave heightAir tempDewpointWater temp
2015-Jan-28 07:24N 35°58' W 005°36'8 9.0
2015-Jan-28 06:28N 36°01' W 005°26'5 3.6
2015-Jan-28 05:03N 36°06' W 005°25'0 0.1
2015-Jan-28 04:33N 36°06' W 005°25'0 0.1
2015-Jan-28 03:33N 36°06' W 005°25'0 0.0
2015-Jan-28 02:33N 36°06' W 005°25'0 0.0
2015-Jan-28 01:33N 36°06' W 005°25'0 0.0
2015-Jan-28 00:33N 36°06' W 005°25'0 0.0
2015-Jan-27 23:27N 36°06' W 005°25'0 0.1
2015-Jan-27 22:33N 36°06' W 005°25'0 0.1
2015-Jan-27 21:33N 36°06' W 005°25'0 0.0
2015-Jan-27 20:33N 36°06' W 005°25'1 0.9
2015-Jan-27 19:34N 36°06' W 005°24'7 6.9
2015-Jan-27 18:33N 36°04' W 005°16'1 0.8
2015-Jan-27 17:33N 36°04' W 005°17'3 2.6
2015-Jan-27 16:33N 36°04' W 005°20'1 1.4
2015-Jan-27 15:33N 36°03' W 005°18'  
2015-Jan-23 03:19N 36°39' E 013°43'9 9.9
2015-Jan-23 02:27N 36°37' E 013°54'18 9.4
2015-Jan-23 00:30N 36°32' E 014°16'9 9.2
2015-Jan-22 23:33N 36°29' E 014°26'  
Track history (hours):
 
Tides and Currents Weather Stations Pressure Air Temp Water Temp Dewpoint Dewpoint Depression Visibility Wind Speed Wind Dir Waves Ship Positions

Kaszuby

Last reported at 2015-Jan-28 07:24 UTC. Time now 2015-Jan-30 07:55 UTC.
Position N 35°58' W 005°36'.

Length 190 m; draft 10.5 m.

Type: Cargo ship. MMSI: 311005600.

Date/timePositionNaut miles runAvg speedWind from/ knotsBaromVisibWave heightAir tempDewpointWater temp
2015-Jan-28 07:24N 35°58' W 005°36'8 9.0
2015-Jan-28 06:28N 36°01' W 005°26'5 3.6
2015-Jan-28 05:03N 36°06' W 005°25'0 0.1
2015-Jan-28 04:33N 36°06' W 005°25'0 0.1
2015-Jan-28 03:33N 36°06' W 005°25'0 0.0
2015-Jan-28 02:33N 36°06' W 005°25'0 0.0
2015-Jan-28 01:33N 36°06' W 005°25'0 0.0
2015-Jan-28 00:33N 36°06' W 005°25'0 0.0
2015-Jan-27 23:27N 36°06' W 005°25'0 0.1
2015-Jan-27 22:33N 36°06' W 005°25'0 0.1
2015-Jan-27 21:33N 36°06' W 005°25'0 0.0
2015-Jan-27 20:33N 36°06' W 005°25'1 0.9
2015-Jan-27 19:34N 36°06' W 005°24'7 6.9
2015-Jan-27 18:33N 36°04' W 005°16'1 0.8
2015-Jan-27 17:33N 36°04' W 005°17'3 2.6
2015-Jan-27 16:33N 36°04' W 005°20'1 1.4
2015-Jan-27 15:33N 36°03' W 005°18'  
2015-Jan-23 03:19N 36°39' E 013°43'9 9.9
2015-Jan-23 02:27N 36°37' E 013°54'18 9.4
2015-Jan-23 00:30N 36°32' E 014°16'9 9.2
2015-Jan-22 23:33N 36°29' E 014°26'  

Dump ship's entire track history